Home > Products > Valid Products > TAF

000
FTUS43 KMKX 032000 AAA
TAFMKE
TAF AMD
KMKE 032000Z 0320/0424 31018G26KT P6SM FEW080 FEW250
     FM040000 28008KT P6SM SKC
     FM040500 29004KT P6SM SCT250
     FM041500 30008KT P6SM SCT050
     FM042000 03006KT P6SM SCT050=



000
FTUS43 KMKX 032000 AAA
TAFMKE
TAF AMD
KMKE 032000Z 0320/0424 31018G26KT P6SM FEW080 FEW250
     FM040000 28008KT P6SM SKC
     FM040500 29004KT P6SM SCT250
     FM041500 30008KT P6SM SCT050
     FM042000 03006KT P6SM SCT050=



000
FTUS43 KMKX 031728
TAFMKE
TAF
KMKE 031728Z 0318/0424 28012G19KT P6SM FEW060
     FM040000 28008KT P6SM SKC
     FM040500 29004KT P6SM SCT250
     FM041500 30008KT P6SM SCT050
     FM042000 03006KT P6SM SCT050=



000
FTUS43 KMKX 031728
TAFMKE
TAF
KMKE 031728Z 0318/0424 28012G19KT P6SM FEW060
     FM040000 28008KT P6SM SKC
     FM040500 29004KT P6SM SCT250
     FM041500 30008KT P6SM SCT050
     FM042000 03006KT P6SM SCT050=



000
FTUS43 KMKX 031728
TAFMSN
TAF
KMSN 031728Z 0318/0418 31011G20KT P6SM SCT060
     FM040000 30007KT P6SM SKC
     FM040400 VRB03KT P6SM SKC
     FM041500 31006KT P6SM FEW050=



000
FTUS43 KMKX 031409 AAA
TAFMKE
TAF AMD
KMKE 031409Z 0314/0418 28008KT P6SM SKC
     FM031600 30012G21KT P6SM FEW060
     FM040100 29006KT P6SM SCT150
     FM041600 28011KT P6SM SCT040=



000
FTUS43 KMKX 031409 AAA
TAFMKE
TAF AMD
KMKE 031409Z 0314/0418 28008KT P6SM SKC
     FM031600 30012G21KT P6SM FEW060
     FM040100 29006KT P6SM SCT150
     FM041600 28011KT P6SM SCT040=



000
FTUS43 KMKX 031409 AAA
TAFMKE
TAF AMD
KMKE 031409Z 0314/0418 28008KT P6SM SKC
     FM031600 30012G21KT P6SM FEW060
     FM040100 29006KT P6SM SCT150
     FM041600 28011KT P6SM SCT040=



000
FTUS43 KMKX 031409 AAA
TAFMKE
TAF AMD
KMKE 031409Z 0314/0418 28008KT P6SM SKC
     FM031600 30012G21KT P6SM FEW060
     FM040100 29006KT P6SM SCT150
     FM041600 28011KT P6SM SCT040=



000
FTUS43 KMKX 031404 AAA
TAFMSN
TAF AMD
KMSN 031404Z 0314/0412 31005KT P6SM SKC
     FM031600 30011G19KT P6SM FEW040
     FM040100 29005KT P6SM FEW150=



000
FTUS43 KMKX 031404 AAA
TAFMSN
TAF AMD
KMSN 031404Z 0314/0412 31005KT P6SM SKC
     FM031600 30011G19KT P6SM FEW040
     FM040100 29005KT P6SM FEW150=



000
FTUS43 KMKX 031126
TAFMKE
TAF
KMKE 031126Z 0312/0418 30008KT P6SM FEW080
     FM031400 30010G17KT P6SM FEW040
     FM031600 30012G21KT P6SM FEW050
     FM040100 29006KT P6SM SCT150
     FM041600 28011KT P6SM SCT040=



000
FTUS43 KMKX 031126
TAFMSN
TAF
KMSN 031126Z 0312/0412 30006KT P6SM FEW060
     FM031400 30008G15KT P6SM FEW030
     FM031600 30011G19KT P6SM FEW040
     FM040100 29005KT P6SM FEW150=



000
FTUS43 KMKX 031126
TAFMKE
TAF
KMKE 031126Z 0312/0418 30008KT P6SM FEW080
     FM031400 30010G17KT P6SM FEW040
     FM031600 30012G21KT P6SM FEW050
     FM040100 29006KT P6SM SCT150
     FM041600 28011KT P6SM SCT040=



000
FTUS43 KMKX 031126
TAFMSN
TAF
KMSN 031126Z 0312/0412 30006KT P6SM FEW060
     FM031400 30008G15KT P6SM FEW030
     FM031600 30011G19KT P6SM FEW040
     FM040100 29005KT P6SM FEW150=



000
FTUS43 KMKX 031126
TAFMSN
TAF
KMSN 031126Z 0312/0412 30006KT P6SM FEW060
     FM031400 30008G15KT P6SM FEW030
     FM031600 30011G19KT P6SM FEW040
     FM040100 29005KT P6SM FEW150=



000
FTUS43 KMKX 031126
TAFMKE
TAF
KMKE 031126Z 0312/0418 30008KT P6SM FEW080
     FM031400 30010G17KT P6SM FEW040
     FM031600 30012G21KT P6SM FEW050
     FM040100 29006KT P6SM SCT150
     FM041600 28011KT P6SM SCT040=



000
FTUS43 KMKX 030854 AAA
TAFMKE
TAF AMD
KMKE 030854Z 0309/0412 33004KT P6SM SCT070
     FM031400 30008KT P6SM FEW250
     FM031800 29012G20KT P6SM FEW060
     FM040100 30008KT P6SM FEW250=



000
FTUS43 KMKX 030854 AAA
TAFMKE
TAF AMD
KMKE 030854Z 0309/0412 33004KT P6SM SCT070
     FM031400 30008KT P6SM FEW250
     FM031800 29012G20KT P6SM FEW060
     FM040100 30008KT P6SM FEW250=



000
FTUS43 KMKX 030520
TAFMKE
TAF
KMKE 030520Z 0306/0412 33004KT P6SM SCT070
     FM031400 30008KT P6SM FEW250
     FM031800 29012G20KT P6SM FEW060
     FM040100 30008KT P6SM FEW250=



000
FTUS43 KMKX 030520
TAFMKE
TAF
KMKE 030520Z 0306/0412 33004KT P6SM SCT070
     FM031400 30008KT P6SM FEW250
     FM031800 29012G20KT P6SM FEW060
     FM040100 30008KT P6SM FEW250=



000
FTUS43 KMKX 030520
TAFMSN
TAF
KMSN 030520Z 0306/0406 31003KT P6SM SCT070
     FM031400 30006KT P6SM FEW250
     FM031700 30010G17KT P6SM FEW050
     FM040000 30006KT P6SM FEW060=



000
FTUS43 KMKX 030520
TAFMSN
TAF
KMSN 030520Z 0306/0406 31003KT P6SM SCT070
     FM031400 30006KT P6SM FEW250
     FM031700 30010G17KT P6SM FEW050
     FM040000 30006KT P6SM FEW060=



000
FTUS43 KMKX 030520
TAFMSN
TAF
KMSN 030520Z 0306/0406 31003KT P6SM SCT070
     FM031400 30006KT P6SM FEW250
     FM031700 30010G17KT P6SM FEW050
     FM040000 30006KT P6SM FEW060=



000
FTUS43 KMKX 030520
TAFMKE
TAF
KMKE 030520Z 0306/0412 33004KT P6SM SCT070
     FM031400 30008KT P6SM FEW250
     FM031800 29012G20KT P6SM FEW060
     FM040100 30008KT P6SM FEW250=



000
FTUS43 KMKX 030520
TAFMKE
TAF
KMKE 030520Z 0306/0412 33004KT P6SM SCT070
     FM031400 30008KT P6SM FEW250
     FM031800 29012G20KT P6SM FEW060
     FM040100 30008KT P6SM FEW250=



000
FTUS43 KMKX 030520
TAFMSN
TAF
KMSN 030520Z 0306/0406 31003KT P6SM SCT070
     FM031400 30006KT P6SM FEW250
     FM031700 30010G17KT P6SM FEW050
     FM040000 30006KT P6SM FEW060=



000
FTUS43 KMKX 030313 AAD
TAFMSN
TAF AMD
KMSN 030313Z 0303/0324 32006KT P6SM FEW070
     FM031700 30011KT P6SM FEW050=



000
FTUS43 KMKX 030313 AAD
TAFMSN
TAF AMD
KMSN 030313Z 0303/0324 32006KT P6SM FEW070
     FM031700 30011KT P6SM FEW050=



000
FTUS43 KMKX 030312 AAH
TAFMKE
TAF AMD
KMKE 030312Z 0303/0406 33006KT P6SM BKN080
     FM030500 VRB04KT P6SM SCT070
     FM031000 29007KT P6SM FEW070
     FM031700 29012G19KT P6SM FEW050
     FM040000 30009KT P6SM FEW250=



000
FTUS43 KMKX 030312 AAH
TAFMKE
TAF AMD
KMKE 030312Z 0303/0406 33006KT P6SM BKN080
     FM030500 VRB04KT P6SM SCT070
     FM031000 29007KT P6SM FEW070
     FM031700 29012G19KT P6SM FEW050
     FM040000 30009KT P6SM FEW250=



000
FTUS43 KMKX 030159 AAC
TAFMSN
TAF AMD
KMSN 030159Z 0302/0324 33013G20KT P6SM BKN060 BKN090 BKN250
     FM030300 32007KT P6SM SCT250
     FM031700 30011KT P6SM FEW250
     FM031800 30012KT P6SM FEW050=



000
FTUS43 KMKX 030159 AAC
TAFMSN
TAF AMD
KMSN 030159Z 0302/0324 33013G20KT P6SM BKN060 BKN090 BKN250
     FM030300 32007KT P6SM SCT250
     FM031700 30011KT P6SM FEW250
     FM031800 30012KT P6SM FEW050=



000
FTUS43 KMKX 030158 AAG
TAFMKE
TAF AMD
KMKE 030158Z 0302/0406 08006KT P6SM TS BKN050 BKN070CB
     FM030230 35011KT P6SM VCTS BKN035CB
     FM030300 31007KT P6SM BKN200
     FM031700 29012G19KT P6SM FEW250
     FM031800 29013G21KT P6SM FEW050
     FM040000 30009KT P6SM FEW250=



000
FTUS43 KMKX 030158 AAG
TAFMKE
TAF AMD
KMKE 030158Z 0302/0406 08006KT P6SM TS BKN050 BKN070CB
     FM030230 35011KT P6SM VCTS BKN035CB
     FM030300 31007KT P6SM BKN200
     FM031700 29012G19KT P6SM FEW250
     FM031800 29013G21KT P6SM FEW050
     FM040000 30009KT P6SM FEW250=



000
FTUS43 KMKX 030140 AAF
TAFMKE
TAF AMD
KMKE 030140Z 0302/0406 10008KT 3SM -TSRA BR VCTS SCT016 BKN026
      BKN045CB
     FM030230 35013KT P6SM VCTS BKN035CB
     FM030300 31007KT P6SM BKN200
     FM031700 29012G19KT P6SM FEW250
     FM031800 29013G21KT P6SM FEW050
     FM040000 30009KT P6SM FEW250=



000
FTUS43 KMKX 030121 AAE
TAFMKE
TAF AMD
KMKE 030121Z 0301/0406 14009KT 3SM TSRA SCT021 BKN035CB
      TEMPO 0301/0302 1SM +TSRA OVC030CB
     FM030200 33012KT P6SM VCTS SCT060 BKN200CB
     FM030300 31007KT P6SM SCT200
     FM031700 29012G19KT P6SM FEW250
     FM031800 29013G21KT P6SM FEW050
     FM040000 30009KT P6SM FEW250=



000
FTUS43 KMKX 030121 AAE
TAFMKE
TAF AMD
KMKE 030121Z 0301/0406 14009KT 3SM TSRA SCT021 BKN035CB
      TEMPO 0301/0302 1SM +TSRA OVC030CB
     FM030200 33012KT P6SM VCTS SCT060 BKN200CB
     FM030300 31007KT P6SM SCT200
     FM031700 29012G19KT P6SM FEW250
     FM031800 29013G21KT P6SM FEW050
     FM040000 30009KT P6SM FEW250=



000
FTUS43 KMKX 030102 AAB
TAFMSN
TAF AMD
KMSN 030102Z 0301/0324 30009G16KT P6SM SCT070 BKN250
     FM030300 32007KT P6SM SCT250
     FM031700 30011KT P6SM FEW250
     FM031800 30012KT P6SM FEW050=



000
FTUS43 KMKX 030102 AAB
TAFMSN
TAF AMD
KMSN 030102Z 0301/0324 30009G16KT P6SM SCT070 BKN250
     FM030300 32007KT P6SM SCT250
     FM031700 30011KT P6SM FEW250
     FM031800 30012KT P6SM FEW050=



000
FTUS43 KMKX 030102 AAB
TAFMSN
TAF AMD
KMSN 030102Z 0301/0324 30009G16KT P6SM SCT070 BKN250
     FM030300 32007KT P6SM SCT250
     FM031700 30011KT P6SM FEW250
     FM031800 30012KT P6SM FEW050=



000
FTUS43 KMKX 030102 AAB
TAFMSN
TAF AMD
KMSN 030102Z 0301/0324 30009G16KT P6SM SCT070 BKN250
     FM030300 32007KT P6SM SCT250
     FM031700 30011KT P6SM FEW250
     FM031800 30012KT P6SM FEW050=



000
FTUS43 KMKX 030057 AAD
TAFMKE
TAF AMD
KMKE 030057Z 0301/0406 05017G25KT P6SM -TSRA VCTS FEW050CB BKN110
      TEMPO 0301/0302 4SM TSRA OVC040CB
     FM030200 33012KT P6SM VCTS SCT060 BKN200CB
     FM030300 31007KT P6SM SCT200
     FM031700 29012G19KT P6SM FEW250
     FM031800 29013G21KT P6SM FEW050
     FM040000 30009KT P6SM FEW250=



000
FTUS43 KMKX 030057 AAD
TAFMKE
TAF AMD
KMKE 030057Z 0301/0406 05017G25KT P6SM -TSRA VCTS FEW050CB BKN110
      TEMPO 0301/0302 4SM TSRA OVC040CB
     FM030200 33012KT P6SM VCTS SCT060 BKN200CB
     FM030300 31007KT P6SM SCT200
     FM031700 29012G19KT P6SM FEW250
     FM031800 29013G21KT P6SM FEW050
     FM040000 30009KT P6SM FEW250=



000
FTUS43 KMKX 030044 AAC
TAFMKE
TAF AMD
KMKE 030044Z 0301/0406 23020G31KT P6SM VCTS BKN045 BKN250CB
     FM030110 35013G23KT 4SM TSRA OVC040CB
     FM030200 30010KT P6SM VCTS SCT060 BKN200CB
     FM030300 31007KT P6SM SCT200
     FM031700 29012G19KT P6SM FEW250
     FM031800 29013G21KT P6SM FEW050
     FM040000 30009KT P6SM FEW250=



000
FTUS43 KMKX 030044 AAC
TAFMKE
TAF AMD
KMKE 030044Z 0301/0406 23020G31KT P6SM VCTS BKN045 BKN250CB
     FM030110 35013G23KT 4SM TSRA OVC040CB
     FM030200 30010KT P6SM VCTS SCT060 BKN200CB
     FM030300 31007KT P6SM SCT200
     FM031700 29012G19KT P6SM FEW250
     FM031800 29013G21KT P6SM FEW050
     FM040000 30009KT P6SM FEW250=



000
FTUS43 KMKX 030044 AAC
TAFMKE
TAF AMD
KMKE 030044Z 0301/0406 23020G31KT P6SM VCTS BKN045 BKN250CB
     FM030110 35013G23KT 4SM TSRA OVC040CB
     FM030200 30010KT P6SM VCTS SCT060 BKN200CB
     FM030300 31007KT P6SM SCT200
     FM031700 29012G19KT P6SM FEW250
     FM031800 29013G21KT P6SM FEW050
     FM040000 30009KT P6SM FEW250=



000
FTUS43 KMKX 030044 AAC
TAFMKE
TAF AMD
KMKE 030044Z 0301/0406 23020G31KT P6SM VCTS BKN045 BKN250CB
     FM030110 35013G23KT 4SM TSRA OVC040CB
     FM030200 30010KT P6SM VCTS SCT060 BKN200CB
     FM030300 31007KT P6SM SCT200
     FM031700 29012G19KT P6SM FEW250
     FM031800 29013G21KT P6SM FEW050
     FM040000 30009KT P6SM FEW250=



000
FTUS43 KMKX 030039 AAB
TAFMKE
TAF AMD
KMKE 030039Z 0301/0406 23020G31KT P6SM VCTS BKN045 BKN250CB
      TEMPO 0301/0302 4SM TSRA OVC040CB
     FM030200 30010KT P6SM VCTS SCT060 BKN200CB
     FM030300 31007KT P6SM SCT200
     FM031700 29012G19KT P6SM FEW250
     FM031800 29013G21KT P6SM FEW050
     FM040000 30009KT P6SM FEW250=



000
FTUS43 KMKX 030039 AAB
TAFMKE
TAF AMD
KMKE 030039Z 0301/0406 23020G31KT P6SM VCTS BKN045 BKN250CB
      TEMPO 0301/0302 4SM TSRA OVC040CB
     FM030200 30010KT P6SM VCTS SCT060 BKN200CB
     FM030300 31007KT P6SM SCT200
     FM031700 29012G19KT P6SM FEW250
     FM031800 29013G21KT P6SM FEW050
     FM040000 30009KT P6SM FEW250=



000
FTUS43 KMKX 030039 AAB
TAFMKE
TAF AMD
KMKE 030039Z 0301/0406 23020G31KT P6SM VCTS BKN045 BKN250CB
      TEMPO 0301/0302 4SM TSRA OVC040CB
     FM030200 30010KT P6SM VCTS SCT060 BKN200CB
     FM030300 31007KT P6SM SCT200
     FM031700 29012G19KT P6SM FEW250
     FM031800 29013G21KT P6SM FEW050
     FM040000 30009KT P6SM FEW250=



000
FTUS43 KMKX 030010 AAA
TAFMKE
TAF AMD
KMKE 030010Z 0300/0406 23020G31KT P6SM BKN045 BKN250
     FM030100 33012KT P6SM -TSRA SCT060 BKN250CB
      TEMPO 0301/0302 4SM TSRA OVC040CB
     FM030200 30010KT P6SM VCTS SCT060 BKN200CB
     FM030500 31007KT P6SM SCT200
     FM031700 29012G19KT P6SM FEW250
     FM031800 29013G21KT P6SM FEW050
     FM040000 30009KT P6SM FEW250=



000
FTUS43 KMKX 030010 AAA
TAFMKE
TAF AMD
KMKE 030010Z 0300/0406 23020G31KT P6SM BKN045 BKN250
     FM030100 33012KT P6SM -TSRA SCT060 BKN250CB
      TEMPO 0301/0302 4SM TSRA OVC040CB
     FM030200 30010KT P6SM VCTS SCT060 BKN200CB
     FM030500 31007KT P6SM SCT200
     FM031700 29012G19KT P6SM FEW250
     FM031800 29013G21KT P6SM FEW050
     FM040000 30009KT P6SM FEW250=



000
FTUS43 KMKX 030010 AAA
TAFMKE
TAF AMD
KMKE 030010Z 0300/0406 23020G31KT P6SM BKN045 BKN250
     FM030100 33012KT P6SM -TSRA SCT060 BKN250CB
      TEMPO 0301/0302 4SM TSRA OVC040CB
     FM030200 30010KT P6SM VCTS SCT060 BKN200CB
     FM030500 31007KT P6SM SCT200
     FM031700 29012G19KT P6SM FEW250
     FM031800 29013G21KT P6SM FEW050
     FM040000 30009KT P6SM FEW250=



000
FTUS43 KMKX 030003 AAA
TAFMSN
TAF AMD
KMSN 030003Z 0300/0324 29010G18KT P6SM FEW060 SCT250
     FM030100 35012KT P6SM SCT250
     FM030300 32007KT P6SM SCT250
     FM031700 30011KT P6SM FEW250
     FM031800 30012KT P6SM FEW050=



000
FTUS43 KMKX 030003 AAA
TAFMSN
TAF AMD
KMSN 030003Z 0300/0324 29010G18KT P6SM FEW060 SCT250
     FM030100 35012KT P6SM SCT250
     FM030300 32007KT P6SM SCT250
     FM031700 30011KT P6SM FEW250
     FM031800 30012KT P6SM FEW050=



000
FTUS43 KMKX 030003 AAA
TAFMSN
TAF AMD
KMSN 030003Z 0300/0324 29010G18KT P6SM FEW060 SCT250
     FM030100 35012KT P6SM SCT250
     FM030300 32007KT P6SM SCT250
     FM031700 30011KT P6SM FEW250
     FM031800 30012KT P6SM FEW050=



000
FTUS43 KMKX 030003 AAA
TAFMSN
TAF AMD
KMSN 030003Z 0300/0324 29010G18KT P6SM FEW060 SCT250
     FM030100 35012KT P6SM SCT250
     FM030300 32007KT P6SM SCT250
     FM031700 30011KT P6SM FEW250
     FM031800 30012KT P6SM FEW050=



000
FTUS43 KMKX 022320
TAFMKE
TAF
KMKE 022320Z 0300/0406 23024G30KT P6SM FEW045 BKN200
     FM030045 33012KT P6SM BKN250
     FM030300 30010KT P6SM BKN200
     FM030500 31007KT P6SM SCT200
     FM031700 29012G19KT P6SM FEW250
     FM031800 29013G21KT P6SM FEW050
     FM040000 30009KT P6SM FEW250=



000
FTUS43 KMKX 022320
TAFMKE
TAF
KMKE 022320Z 0300/0406 23024G30KT P6SM FEW045 BKN200
     FM030045 33012KT P6SM BKN250
     FM030300 30010KT P6SM BKN200
     FM030500 31007KT P6SM SCT200
     FM031700 29012G19KT P6SM FEW250
     FM031800 29013G21KT P6SM FEW050
     FM040000 30009KT P6SM FEW250=



000
FTUS43 KMKX 022320
TAFMSN
TAF
KMSN 022320Z 0300/0324 25011G20KT P6SM SCT060
     FM030100 35012KT P6SM SCT250
     FM030300 32007KT P6SM SCT250
     FM031700 30011KT P6SM FEW250
     FM031800 30012KT P6SM FEW050=



000
FTUS43 KMKX 022320
TAFMKE
TAF
KMKE 022320Z 0300/0406 23024G30KT P6SM FEW045 BKN200
     FM030045 33012KT P6SM BKN250
     FM030300 30010KT P6SM BKN200
     FM030500 31007KT P6SM SCT200
     FM031700 29012G19KT P6SM FEW250
     FM031800 29013G21KT P6SM FEW050
     FM040000 30009KT P6SM FEW250=



000
FTUS43 KMKX 022320
TAFMSN
TAF
KMSN 022320Z 0300/0324 25011G20KT P6SM SCT060
     FM030100 35012KT P6SM SCT250
     FM030300 32007KT P6SM SCT250
     FM031700 30011KT P6SM FEW250
     FM031800 30012KT P6SM FEW050=



000
FTUS43 KMKX 022320
TAFMSN
TAF
KMSN 022320Z 0300/0324 25011G20KT P6SM SCT060
     FM030100 35012KT P6SM SCT250
     FM030300 32007KT P6SM SCT250
     FM031700 30011KT P6SM FEW250
     FM031800 30012KT P6SM FEW050=



000
FTUS43 KMKX 022014 AAA
TAFMKE
TAF AMD
KMKE 022014Z 0220/0324 23019G31KT P6SM FEW050 FEW250
     FM022200 22022G32KT P6SM VCTS SCT090CB
     FM022300 22021G33KT 6SM -TSRA SCT040 BKN080CB
      TEMPO 0223/0302 3SM TSRA OVC040CB
     FM030200 24018G28KT P6SM -SHRA BKN090
     FM030400 28007KT P6SM SCT080
     FM030600 31006KT P6SM SCT050
     FM031100 31008KT P6SM SCT200
     FM031500 30012G19KT P6SM FEW250=



000
FTUS43 KMKX 022014 AAA
TAFMKE
TAF AMD
KMKE 022014Z 0220/0324 23019G31KT P6SM FEW050 FEW250
     FM022200 22022G32KT P6SM VCTS SCT090CB
     FM022300 22021G33KT 6SM -TSRA SCT040 BKN080CB
      TEMPO 0223/0302 3SM TSRA OVC040CB
     FM030200 24018G28KT P6SM -SHRA BKN090
     FM030400 28007KT P6SM SCT080
     FM030600 31006KT P6SM SCT050
     FM031100 31008KT P6SM SCT200
     FM031500 30012G19KT P6SM FEW250=



000
FTUS43 KMKX 022014 AAA
TAFMKE
TAF AMD
KMKE 022014Z 0220/0324 23019G31KT P6SM FEW050 FEW250
     FM022200 22022G32KT P6SM VCTS SCT090CB
     FM022300 22021G33KT 6SM -TSRA SCT040 BKN080CB
      TEMPO 0223/0302 3SM TSRA OVC040CB
     FM030200 24018G28KT P6SM -SHRA BKN090
     FM030400 28007KT P6SM SCT080
     FM030600 31006KT P6SM SCT050
     FM031100 31008KT P6SM SCT200
     FM031500 30012G19KT P6SM FEW250=



000
FTUS43 KMKX 021722
TAFMKE
TAF
KMKE 021722Z 0218/0324 23020G31KT P6SM FEW040 SCT100
     FM022200 22022G32KT P6SM VCTS SCT090CB
     FM022300 22021G33KT 6SM -TSRA SCT040 BKN080CB
     FM030100 24018G28KT P6SM -SHRA BKN090
     FM030200 26012KT P6SM BKN090
     FM030400 28007KT P6SM SCT080
     FM030600 31006KT P6SM SCT050
     FM031100 31008KT P6SM SCT200
     FM031500 30012G19KT P6SM FEW250=



000
FTUS43 KMKX 021722
TAFMSN
TAF
KMSN 021722Z 0218/0318 22012G22KT P6SM SCT120
     FM022100 23015G25KT P6SM VCTS SCT070CB
     FM022300 26012G22KT 5SM -TSRA BKN050CB
     FM030100 28006KT P6SM VCTS BKN150CB
     FM030200 30004KT P6SM BKN200
     FM031500 31008KT P6SM FEW250=



000
FTUS43 KMKX 021722
TAFMKE
TAF
KMKE 021722Z 0218/0324 23020G31KT P6SM FEW040 SCT100
     FM022200 22022G32KT P6SM VCTS SCT090CB
     FM022300 22021G33KT 6SM -TSRA SCT040 BKN080CB
     FM030100 24018G28KT P6SM -SHRA BKN090
     FM030200 26012KT P6SM BKN090
     FM030400 28007KT P6SM SCT080
     FM030600 31006KT P6SM SCT050
     FM031100 31008KT P6SM SCT200
     FM031500 30012G19KT P6SM FEW250=



000
FTUS43 KMKX 021722
TAFMSN
TAF
KMSN 021722Z 0218/0318 22012G22KT P6SM SCT120
     FM022100 23015G25KT P6SM VCTS SCT070CB
     FM022300 26012G22KT 5SM -TSRA BKN050CB
     FM030100 28006KT P6SM VCTS BKN150CB
     FM030200 30004KT P6SM BKN200
     FM031500 31008KT P6SM FEW250=



000
FTUS43 KMKX 021414 AAB
TAFMKE
TAF AMD
KMKE 021414Z 0214/0318 23017G24KT P6SM FEW150 SCT180
     FM021700 23020G31KT P6SM VCTS SCT050CB BKN150
     FM022100 22023G33KT P6SM VCTS SCT050CB BKN090
      TEMPO 0222/0302 3SM TSRA BKN040CB
     FM030300 27009KT P6SM SCT040 BKN090
     FM030600 28007KT P6SM SCT090=



000
FTUS43 KMKX 021414 AAB
TAFMKE
TAF AMD
KMKE 021414Z 0214/0318 23017G24KT P6SM FEW150 SCT180
     FM021700 23020G31KT P6SM VCTS SCT050CB BKN150
     FM022100 22023G33KT P6SM VCTS SCT050CB BKN090
      TEMPO 0222/0302 3SM TSRA BKN040CB
     FM030300 27009KT P6SM SCT040 BKN090
     FM030600 28007KT P6SM SCT090=



000
FTUS43 KMKX 021355 AAA
TAFMKE
TAF AMD
KMKE 021355Z 0214/0318 23010KT P6SM FEW150 SCT180
     FM021700 23020G31KT P6SM VCTS SCT050CB BKN150
     FM022100 22023G33KT P6SM VCTS SCT050CB BKN090
      TEMPO 0222/0302 3SM TSRA BKN040CB
     FM030300 27009KT P6SM SCT040 BKN090
     FM030600 28007KT P6SM SCT090=



000
FTUS43 KMKX 021355 AAA
TAFMKE
TAF AMD
KMKE 021355Z 0214/0318 23010KT P6SM FEW150 SCT180
     FM021700 23020G31KT P6SM VCTS SCT050CB BKN150
     FM022100 22023G33KT P6SM VCTS SCT050CB BKN090
      TEMPO 0222/0302 3SM TSRA BKN040CB
     FM030300 27009KT P6SM SCT040 BKN090
     FM030600 28007KT P6SM SCT090=



000
FTUS43 KMKX 021120
TAFMSN
TAF
KMSN 021120Z 0212/0312 23008KT P6SM SCT080 BKN150 WS020/26040KT
     FM021400 23011G18KT P6SM FEW060 BKN120
     FM021700 23017G27KT P6SM VCTS SCT040 BKN120CB
     FM022100 23018G28KT P6SM VCTS SCT040CB BKN100
      TEMPO 0221/0301 3SM TSRA BKN040CB
     FM030200 26011KT P6SM SCT030 BKN060
     FM030600 31008KT P6SM SCT050 BKN200=



000
FTUS43 KMKX 021120
TAFMKE
TAF
KMKE 021120Z 0212/0318 24010G17KT P6SM SCT100 BKN150
     FM021400 24014G24KT P6SM SCT080 BKN150
     FM021700 23020G31KT P6SM VCTS SCT050CB BKN150
     FM022100 22023G33KT P6SM VCTS SCT050CB BKN090
      TEMPO 0222/0302 3SM TSRA BKN040CB
     FM030300 27009KT P6SM SCT040 BKN090
     FM030600 28007KT P6SM SCT090=



000
FTUS43 KMKX 021120
TAFMKE
TAF
KMKE 021120Z 0212/0318 24010G17KT P6SM SCT100 BKN150
     FM021400 24014G24KT P6SM SCT080 BKN150
     FM021700 23020G31KT P6SM VCTS SCT050CB BKN150
     FM022100 22023G33KT P6SM VCTS SCT050CB BKN090
      TEMPO 0222/0302 3SM TSRA BKN040CB
     FM030300 27009KT P6SM SCT040 BKN090
     FM030600 28007KT P6SM SCT090=



000
FTUS43 KMKX 021120
TAFMSN
TAF
KMSN 021120Z 0212/0312 23008KT P6SM SCT080 BKN150 WS020/26040KT
     FM021400 23011G18KT P6SM FEW060 BKN120
     FM021700 23017G27KT P6SM VCTS SCT040 BKN120CB
     FM022100 23018G28KT P6SM VCTS SCT040CB BKN100
      TEMPO 0221/0301 3SM TSRA BKN040CB
     FM030200 26011KT P6SM SCT030 BKN060
     FM030600 31008KT P6SM SCT050 BKN200=



000
FTUS43 KMKX 021120
TAFMKE
TAF
KMKE 021120Z 0212/0318 24010G17KT P6SM SCT100 BKN150
     FM021400 24014G24KT P6SM SCT080 BKN150
     FM021700 23020G31KT P6SM VCTS SCT050CB BKN150
     FM022100 22023G33KT P6SM VCTS SCT050CB BKN090
      TEMPO 0222/0302 3SM TSRA BKN040CB
     FM030300 27009KT P6SM SCT040 BKN090
     FM030600 28007KT P6SM SCT090=



000
FTUS43 KMKX 021120
TAFMSN
TAF
KMSN 021120Z 0212/0312 23008KT P6SM SCT080 BKN150 WS020/26040KT
     FM021400 23011G18KT P6SM FEW060 BKN120
     FM021700 23017G27KT P6SM VCTS SCT040 BKN120CB
     FM022100 23018G28KT P6SM VCTS SCT040CB BKN100
      TEMPO 0221/0301 3SM TSRA BKN040CB
     FM030200 26011KT P6SM SCT030 BKN060
     FM030600 31008KT P6SM SCT050 BKN200=



000
FTUS43 KMKX 020848 AAA
TAFMKE
TAF AMD
KMKE 020848Z 0209/0312 23006KT P6SM SCT120
     FM021500 22014G25KT P6SM SCT100
     FM021800 23018G29KT P6SM SCT100
     FM022100 24022G34KT P6SM SCT050
     FM030000 24018G27KT P6SM VCTS BKN050CB
     FM030200 26013KT P6SM VCTS BKN050CB
     FM030400 27010KT P6SM SCT050
     FM030800 30008KT P6SM SCT050=



000
FTUS43 KMKX 020848 AAA
TAFMKE
TAF AMD
KMKE 020848Z 0209/0312 23006KT P6SM SCT120
     FM021500 22014G25KT P6SM SCT100
     FM021800 23018G29KT P6SM SCT100
     FM022100 24022G34KT P6SM SCT050
     FM030000 24018G27KT P6SM VCTS BKN050CB
     FM030200 26013KT P6SM VCTS BKN050CB
     FM030400 27010KT P6SM SCT050
     FM030800 30008KT P6SM SCT050=



000
FTUS43 KMKX 020520
TAFMSN
TAF
KMSN 020520Z 0206/0306 22004KT P6SM FEW200
     FM021100 23009KT P6SM VCTS SCT100CB WS020/25040KT
     FM021500 22013G20KT P6SM VCTS SCT100CB
     FM021800 23016G27KT P6SM SCT100
     FM022300 26014G22KT P6SM SCT050
     FM030200 28007KT P6SM SCT050=



000
FTUS43 KMKX 020520
TAFMKE
TAF
KMKE 020520Z 0206/0312 23006KT P6SM FEW200
     FM021500 22014G25KT P6SM SCT100
     FM021800 23018G29KT P6SM SCT100
     FM022100 24022G34KT P6SM SCT050
     FM030000 24018G27KT P6SM VCTS BKN050CB
     FM030200 26013KT P6SM VCTS BKN050CB
     FM030400 27010KT P6SM SCT050
     FM030800 30008KT P6SM SCT050=



000
FTUS43 KMKX 020520
TAFMKE
TAF
KMKE 020520Z 0206/0312 23006KT P6SM FEW200
     FM021500 22014G25KT P6SM SCT100
     FM021800 23018G29KT P6SM SCT100
     FM022100 24022G34KT P6SM SCT050
     FM030000 24018G27KT P6SM VCTS BKN050CB
     FM030200 26013KT P6SM VCTS BKN050CB
     FM030400 27010KT P6SM SCT050
     FM030800 30008KT P6SM SCT050=



000
FTUS43 KMKX 020520
TAFMKE
TAF
KMKE 020520Z 0206/0312 23006KT P6SM FEW200
     FM021500 22014G25KT P6SM SCT100
     FM021800 23018G29KT P6SM SCT100
     FM022100 24022G34KT P6SM SCT050
     FM030000 24018G27KT P6SM VCTS BKN050CB
     FM030200 26013KT P6SM VCTS BKN050CB
     FM030400 27010KT P6SM SCT050
     FM030800 30008KT P6SM SCT050=



000
FTUS43 KMKX 012335
TAFMKE
TAF
KMKE 012335Z 0200/0306 VRB06KT P6SM FEW050
     FM020100 15007KT P6SM SKC
     FM020500 23005KT P6SM FEW200
     FM020900 23007KT P6SM VCTS BKN080CB WS020/25040KT
     FM021500 22014G25KT P6SM VCTS BKN080CB
     FM021700 23017G29KT P6SM SCT050
     FM030000 24018G27KT P6SM VCTS BKN050CB
     FM030200 26013KT P6SM VCTS BKN050CB
     FM030400 27010KT P6SM SCT050=



000
FTUS43 KMKX 012335
TAFMKE
TAF
KMKE 012335Z 0200/0306 VRB06KT P6SM FEW050
     FM020100 15007KT P6SM SKC
     FM020500 23005KT P6SM FEW200
     FM020900 23007KT P6SM VCTS BKN080CB WS020/25040KT
     FM021500 22014G25KT P6SM VCTS BKN080CB
     FM021700 23017G29KT P6SM SCT050
     FM030000 24018G27KT P6SM VCTS BKN050CB
     FM030200 26013KT P6SM VCTS BKN050CB
     FM030400 27010KT P6SM SCT050=



000
FTUS43 KMKX 012335
TAFMKE
TAF
KMKE 012335Z 0200/0306 VRB06KT P6SM FEW050
     FM020100 15007KT P6SM SKC
     FM020500 23005KT P6SM FEW200
     FM020900 23007KT P6SM VCTS BKN080CB WS020/25040KT
     FM021500 22014G25KT P6SM VCTS BKN080CB
     FM021700 23017G29KT P6SM SCT050
     FM030000 24018G27KT P6SM VCTS BKN050CB
     FM030200 26013KT P6SM VCTS BKN050CB
     FM030400 27010KT P6SM SCT050=



000
FTUS43 KMKX 012335
TAFMSN
TAF
KMSN 012335Z 0200/0224 VRB03KT P6SM SKC
     FM020600 22004KT P6SM FEW120 SCT150
     FM020900 21006KT P6SM VCTS BKN080CB
     FM021100 23009KT P6SM BKN080 WS020/25040KT
     FM021500 23013G22KT P6SM SCT080
     FM022100 26014G25KT P6SM SCT050=



000
FTUS43 KMKX 012335
TAFMKE
TAF
KMKE 012335Z 0200/0306 VRB06KT P6SM FEW050
     FM020100 15007KT P6SM SKC
     FM020500 23005KT P6SM FEW200
     FM020900 23007KT P6SM VCTS BKN080CB WS020/25040KT
     FM021500 22014G25KT P6SM VCTS BKN080CB
     FM021700 23017G29KT P6SM SCT050
     FM030000 24018G27KT P6SM VCTS BKN050CB
     FM030200 26013KT P6SM VCTS BKN050CB
     FM030400 27010KT P6SM SCT050=



000
FTUS43 KMKX 012335
TAFMSN
TAF
KMSN 012335Z 0200/0224 VRB03KT P6SM SKC
     FM020600 22004KT P6SM FEW120 SCT150
     FM020900 21006KT P6SM VCTS BKN080CB
     FM021100 23009KT P6SM BKN080 WS020/25040KT
     FM021500 23013G22KT P6SM SCT080
     FM022100 26014G25KT P6SM SCT050=



000
FTUS43 KMKX 012335
TAFMSN
TAF
KMSN 012335Z 0200/0224 VRB03KT P6SM SKC
     FM020600 22004KT P6SM FEW120 SCT150
     FM020900 21006KT P6SM VCTS BKN080CB
     FM021100 23009KT P6SM BKN080 WS020/25040KT
     FM021500 23013G22KT P6SM SCT080
     FM022100 26014G25KT P6SM SCT050=



000
FTUS43 KMKX 012022 AAA
TAFMKE
TAF AMD
KMKE 012022Z 0120/0224 28008KT P6SM BKN070
     FM020100 24007KT P6SM SCT200
     FM020700 23007KT P6SM BKN110
     FM021300 24011G19KT P6SM BKN080
     FM021500 23013G22KT P6SM SCT090
     FM022300 24017G26KT P6SM BKN070=



000
FTUS43 KMKX 011749
TAFMKE
TAF
KMKE 011749Z 0118/0224 29010KT P6SM SCT070
     FM012000 24011KT P6SM SCT060
     FM020100 23007KT P6SM SCT200
     FM020700 23007KT P6SM BKN110
     FM021300 24011G19KT P6SM BKN080
     FM021500 23013G22KT P6SM SCT090
     FM022300 24017G26KT P6SM BKN070=



000
FTUS43 KMKX 011749
TAFMKE
TAF
KMKE 011749Z 0118/0224 29010KT P6SM SCT070
     FM012000 24011KT P6SM SCT060
     FM020100 23007KT P6SM SCT200
     FM020700 23007KT P6SM BKN110
     FM021300 24011G19KT P6SM BKN080
     FM021500 23013G22KT P6SM SCT090
     FM022300 24017G26KT P6SM BKN070=



000
FTUS43 KMKX 011749
TAFMSN
TAF
KMSN 011749Z 0118/0218 28008KT P6SM SCT060
     FM020000 28005KT P6SM SCT120
     FM020400 21004KT P6SM SCT110
     FM020500 21005KT P6SM VCTS BKN110CB
     FM020800 20006KT P6SM BKN110
     FM021200 22008KT P6SM SCT080 WS020/26035KT
     FM021500 22012G20KT P6SM SCT070=



000
FTUS43 KMKX 011749
TAFMSN
TAF
KMSN 011749Z 0118/0218 28008KT P6SM SCT060
     FM020000 28005KT P6SM SCT120
     FM020400 21004KT P6SM SCT110
     FM020500 21005KT P6SM VCTS BKN110CB
     FM020800 20006KT P6SM BKN110
     FM021200 22008KT P6SM SCT080 WS020/26035KT
     FM021500 22012G20KT P6SM SCT070=



000
FTUS43 KMKX 011409 AAA
TAFMKE
TAF AMD
KMKE 011409Z 0114/0218 30007KT P6SM FEW090
      TEMPO 0115/0118 BKN080
     FM020100 23007KT P6SM SCT250
     FM021100 24011KT P6SM VCTS SCT050CB BKN100 PROB30 0211/0215 5SM
      -TSRA BKN050CB=



000
FTUS43 KMKX 011409 AAA
TAFMKE
TAF AMD
KMKE 011409Z 0114/0218 30007KT P6SM FEW090
      TEMPO 0115/0118 BKN080
     FM020100 23007KT P6SM SCT250
     FM021100 24011KT P6SM VCTS SCT050CB BKN100 PROB30 0211/0215 5SM
      -TSRA BKN050CB=



000
FTUS43 KMKX 011409 AAA
TAFMKE
TAF AMD
KMKE 011409Z 0114/0218 30007KT P6SM FEW090
      TEMPO 0115/0118 BKN080
     FM020100 23007KT P6SM SCT250
     FM021100 24011KT P6SM VCTS SCT050CB BKN100 PROB30 0211/0215 5SM
      -TSRA BKN050CB=



000
FTUS43 KMKX 011409 AAA
TAFMKE
TAF AMD
KMKE 011409Z 0114/0218 30007KT P6SM FEW090
      TEMPO 0115/0118 BKN080
     FM020100 23007KT P6SM SCT250
     FM021100 24011KT P6SM VCTS SCT050CB BKN100 PROB30 0211/0215 5SM
      -TSRA BKN050CB=



000
FTUS43 KMKX 011133
TAFMSN
TAF
KMSN 011133Z 0112/0212 25004KT P6SM SCT070
      TEMPO 0113/0114 BKN070
     FM011400 29008KT P6SM BKN070
     FM011700 27009G17KT P6SM SCT070
     FM020100 21005KT P6SM SCT200
     FM020900 21007KT P6SM VCTS SCT040CB BKN080
      TEMPO 0209/0212 4SM TSRA BKN040CB=



000
FTUS43 KMKX 011133
TAFMKE
TAF
KMKE 011133Z 0112/0218 27007KT P6SM SCT070 SCT250
     FM011400 30011G18KT P6SM SCT080
      TEMPO 0115/0118 BKN080
     FM020100 23007KT P6SM SCT250
     FM021100 24011KT P6SM VCTS SCT050CB BKN100 PROB30 0211/0215 5SM
      -TSRA BKN050CB=



000
FTUS43 KMKX 011133
TAFMKE
TAF
KMKE 011133Z 0112/0218 27007KT P6SM SCT070 SCT250
     FM011400 30011G18KT P6SM SCT080
      TEMPO 0115/0118 BKN080
     FM020100 23007KT P6SM SCT250
     FM021100 24011KT P6SM VCTS SCT050CB BKN100 PROB30 0211/0215 5SM
      -TSRA BKN050CB=



000
FTUS43 KMKX 011133
TAFMSN
TAF
KMSN 011133Z 0112/0212 25004KT P6SM SCT070
      TEMPO 0113/0114 BKN070
     FM011400 29008KT P6SM BKN070
     FM011700 27009G17KT P6SM SCT070
     FM020100 21005KT P6SM SCT200
     FM020900 21007KT P6SM VCTS SCT040CB BKN080
      TEMPO 0209/0212 4SM TSRA BKN040CB=



000
FTUS43 KMKX 010836 AAA
TAFMKE
TAF AMD
KMKE 010836Z 0109/0212 28005KT P6SM FEW070
     FM011400 28009KT P6SM SCT070
     FM020100 25008KT P6SM SCT070
     FM020700 22006KT P6SM BKN070=



000
FTUS43 KMKX 010836 AAA
TAFMKE
TAF AMD
KMKE 010836Z 0109/0212 28005KT P6SM FEW070
     FM011400 28009KT P6SM SCT070
     FM020100 25008KT P6SM SCT070
     FM020700 22006KT P6SM BKN070=



000
FTUS43 KMKX 010520
TAFMSN
TAF
KMSN 010520Z 0106/0206 VRB03KT P6SM SCT070
     FM011600 29007KT P6SM SCT070
     FM020200 23004KT P6SM SCT070
     FM020400 21004KT P6SM BKN070=



000
FTUS43 KMKX 010520
TAFMKE
TAF
KMKE 010520Z 0106/0212 28005KT P6SM FEW070
     FM011400 28009KT P6SM SCT070
     FM020100 25008KT P6SM SCT070
     FM020700 22006KT P6SM BKN070=



000
FTUS43 KMKX 010520
TAFMSN
TAF
KMSN 010520Z 0106/0206 VRB03KT P6SM SCT070
     FM011600 29007KT P6SM SCT070
     FM020200 23004KT P6SM SCT070
     FM020400 21004KT P6SM BKN070=



000
FTUS43 KMKX 010520
TAFMKE
TAF
KMKE 010520Z 0106/0212 28005KT P6SM FEW070
     FM011400 28009KT P6SM SCT070
     FM020100 25008KT P6SM SCT070
     FM020700 22006KT P6SM BKN070=



000
FTUS43 KMKX 010520
TAFMSN
TAF
KMSN 010520Z 0106/0206 VRB03KT P6SM SCT070
     FM011600 29007KT P6SM SCT070
     FM020200 23004KT P6SM SCT070
     FM020400 21004KT P6SM BKN070=



000
FTUS43 KMKX 010520
TAFMKE
TAF
KMKE 010520Z 0106/0212 28005KT P6SM FEW070
     FM011400 28009KT P6SM SCT070
     FM020100 25008KT P6SM SCT070
     FM020700 22006KT P6SM BKN070=



000
FTUS43 KMKX 010245 AAA
TAFMKE
TAF AMD
KMKE 010245Z 0103/0206 28007KT P6SM FEW070
     FM012300 26010KT P6SM SCT070
     FM020200 24006KT P6SM SCT070=



000
FTUS43 KMKX 010245 AAA
TAFMKE
TAF AMD
KMKE 010245Z 0103/0206 28007KT P6SM FEW070
     FM012300 26010KT P6SM SCT070
     FM020200 24006KT P6SM SCT070=



000
FTUS43 KMKX 010245 AAA
TAFMKE
TAF AMD
KMKE 010245Z 0103/0206 28007KT P6SM FEW070
     FM012300 26010KT P6SM SCT070
     FM020200 24006KT P6SM SCT070=



000
FTUS43 KMKX 312335
TAFMSN
TAF
KMSN 312335Z 0100/0124 31008KT P6SM FEW070
     FM010300 VRB03KT P6SM FEW070
     FM011600 29007KT P6SM SCT070=



000
FTUS43 KMKX 312335
TAFMSN
TAF
KMSN 312335Z 0100/0124 31008KT P6SM FEW070
     FM010300 VRB03KT P6SM FEW070
     FM011600 29007KT P6SM SCT070=



000
FTUS43 KMKX 312335
TAFMKE
TAF
KMKE 312335Z 0100/0206 29013KT P6SM SCT070
     FM010200 29008KT P6SM FEW070
     FM012300 26010KT P6SM SCT070
     FM020200 24006KT P6SM SCT070=



000
FTUS43 KMKX 312335
TAFMKE
TAF
KMKE 312335Z 0100/0206 29013KT P6SM SCT070
     FM010200 29008KT P6SM FEW070
     FM012300 26010KT P6SM SCT070
     FM020200 24006KT P6SM SCT070=



000
FTUS43 KMKX 312335
TAFMKE
TAF
KMKE 312335Z 0100/0206 29013KT P6SM SCT070
     FM010200 29008KT P6SM FEW070
     FM012300 26010KT P6SM SCT070
     FM020200 24006KT P6SM SCT070=



000
FTUS43 KMKX 312335
TAFMSN
TAF
KMSN 312335Z 0100/0124 31008KT P6SM FEW070
     FM010300 VRB03KT P6SM FEW070
     FM011600 29007KT P6SM SCT070=



000
FTUS43 KMKX 312335
TAFMKE
TAF
KMKE 312335Z 0100/0206 29013KT P6SM SCT070
     FM010200 29008KT P6SM FEW070
     FM012300 26010KT P6SM SCT070
     FM020200 24006KT P6SM SCT070=



000
FTUS43 KMKX 312335
TAFMSN
TAF
KMSN 312335Z 0100/0124 31008KT P6SM FEW070
     FM010300 VRB03KT P6SM FEW070
     FM011600 29007KT P6SM SCT070=



    US Dept of Commerce
    National Oceanic and Atmospheric Administration
    National Weather Service
    1325 East West Highway
    Silver Spring, MD 20910
    Page Author: NWS Internet Services Team
Disclaimer
Information Quality
Credits
Glossary
Privacy Policy
Freedom of Information Act (FOIA)
About Us
Career Opportunities